Aérodrome :
LOGIN :

S'inscrire | Disclaimer

   EN    FR    IT 

 










Légende :    VFR   VFR Marginal   IFR   IFR Intensif   IFR Très Intensif
Visi : 
Plafond : 
>= 8 km
>= 3000ft
5 à 8 km
1000 à 3000 ft
1500m à 5 km
500 à 1000 ft
800 à 1500m
200 à 500 ft
< 800m
< 200 ft
Symboles :   Orages  Brouillard  Fortes neiges  Fortes précipitations  Vent > 20 kt
SIGMETs :   Divers  Orages  Givrage  Turbulence  Onde Orograph.  Cendres Volcan.






- Altitude de l'aérodrome : 45 ft
- Code IATA : CEG


EGNR - Hawarden Chester

DERNIER METAR :
  • 101520Z 17011KT 6000 -RA SCT012 OVC027 13/11 Q0994

METARs EXPIRÉS :
  • 101450Z 17013KT 6000 -RA SCT010 OVC018 13/11 Q0995
  • 101420Z 16014KT 7000 -RA OVC018 12/11 Q0996
  • 101350Z 17014KT 5000 -RA OVC020 12/11 Q0996 RERA
  • 101320Z 18017KT 9000 4000S -RA FEW018 BKN025 12/11 Q0997
  • 101250Z 18018KT 9000 -RA FEW018 BKN021 11/10 Q0998

TAF TAF EGNR
Valide du 10 à 15h jusqu'au 10 à 21h UTC


101421Z 1015/1021 17018G30KT 9999 SCT020
BECMG 1015/1017 27015G28KT
TEMPO 1015/1019 8000 RA BKN014
PROB30
TEMPO 1015/1018 4000 +RA BKN009
BECMG 1018/1021 25008KT



MET'MAP, la Météo Aéronautique d'un coup d'oeil ! - Copyright ORBIFLY Décembre 2007 - Disclaimer

ORBIFLY MET'MAP TEAM :

Programmation & Développement : Alexandra Zaïnal
Sur une idée originale de : Baudouin d'Aumeries
Assistance à la programmation : Marc-Olivier Méhu
Soutien technique & logistique : Manuel Goepfert

Contact : metmap@orbifly.com




SOURCES & CREDITS :

   NOAA